Kansas City, Missouri
Traffic Map
Current Weather Conditions
Kansas City, Missouri
Clear
Clear
33°
Feels Like: 35°
Wind Chill: 33° Ceiling: Unl
Heat Index: 35° Visibility: 10mi
Dew Point: 20° Wind: 12mph
Humidity: 47% Direction: 210° (SSW)
Pressure: 29.91in Gusts: 0mph
Raw Report DataKMKC 031854Z 21010KT 10SM CLR 33/20 A2991 RMK AO2 SLP117 T03280200
Traffic Incident Summary
Active as of:
Severity:
Category:
InformationThere was an issue retrieving the traffic information for this location. Please try a different location or try again shortly.
Advertisements
Track Severe Weather on mobile